createdAt,value
2023-03-15T00:00:10.196Z,82.20
2023-03-15T00:03:04.341Z,82.29
2023-03-15T00:05:34.549Z,82.27
2023-03-15T00:08:07.181Z,82.93
2023-03-15T00:10:38.944Z,82.58
2023-03-15T00:13:11.952Z,82.76
2023-03-15T00:15:49.960Z,83.10
2023-03-15T00:18:22.833Z,83.07
2023-03-15T00:20:54.671Z,82.98
2023-03-15T00:23:27.117Z,83.28
2023-03-15T00:25:58.970Z,83.06
2023-03-15T00:28:31.354Z,83.23
2023-03-15T00:31:12.640Z,83.22
2023-03-15T00:33:44.791Z,83.28
2023-03-15T00:36:17.440Z,83.37
2023-03-15T00:38:49.538Z,83.48
2023-03-15T00:41:21.910Z,83.05
2023-03-15T00:43:54.464Z,83.17
2023-03-15T00:46:26.215Z,84.22
2023-03-15T00:48:58.683Z,84.35
2023-03-15T00:51:30.974Z,84.00
2023-03-15T00:54:03.434Z,82.57
2023-03-15T00:56:35.167Z,80.31
2023-03-15T00:59:07.718Z,79.13
2023-03-15T01:01:44.667Z,77.48
2023-03-15T01:04:16.936Z,77.07
2023-03-15T01:06:48.737Z,77.03
2023-03-15T01:09:20.841Z,77.11
2023-03-15T01:11:53.641Z,78.09
2023-03-15T01:14:25.812Z,79.18
2023-03-15T01:16:57.553Z,79.70
2023-03-15T01:19:29.594Z,80.45
2023-03-15T01:22:01.411Z,81.38
2023-03-15T01:24:33.546Z,81.78
2023-03-15T01:27:05.339Z,82.56
2023-03-15T01:29:37.578Z,82.94
2023-03-15T01:32:10.148Z,83.97
2023-03-15T01:34:43.411Z,85.63
2023-03-15T01:37:15.452Z,84.91
2023-03-15T01:39:49.998Z,86.09
2023-03-15T01:42:22.056Z,87.73
2023-03-15T01:45:00.225Z,88.41
2023-03-15T01:47:32.881Z,88.98
2023-03-15T01:50:07.705Z,89.09
2023-03-15T01:52:41.031Z,89.50
2023-03-15T01:55:15.233Z,90.33
2023-03-15T01:57:46.404Z,90.23
2023-03-15T02:00:21.556Z,89.48
2023-03-15T02:02:56.110Z,89.63
2023-03-15T02:05:30.108Z,89.67
2023-03-15T02:08:02.572Z,89.56
2023-03-15T02:10:38.862Z,90.25
2023-03-15T02:13:10.888Z,89.98
2023-03-15T02:15:47.019Z,89.40
2023-03-15T02:18:19.457Z,89.38
2023-03-15T02:20:57.428Z,88.78
2023-03-15T02:23:29.717Z,88.87
2023-03-15T02:26:07.736Z,88.56
2023-03-15T02:28:39.697Z,88.54
2023-03-15T02:31:12.202Z,88.24
2023-03-15T02:33:47.076Z,87.88
2023-03-15T02:36:21.519Z,87.64
2023-03-15T02:38:54.609Z,86.97
2023-03-15T02:41:28.045Z,86.66
2023-03-15T02:44:03.238Z,86.62
2023-03-15T02:46:35.522Z,85.79
2023-03-15T02:49:07.676Z,85.79
2023-03-15T02:51:39.936Z,85.65
2023-03-15T02:54:11.701Z,85.20
2023-03-15T02:56:44.116Z,84.78
2023-03-15T02:59:15.933Z,84.46
2023-03-15T03:01:47.992Z,84.28
2023-03-15T03:04:19.812Z,83.91
2023-03-15T03:06:52.044Z,83.59
2023-03-15T03:09:23.857Z,83.65
2023-03-15T03:11:56.196Z,83.67
2023-03-15T03:14:28.006Z,83.78
2023-03-15T03:17:00.288Z,83.71
2023-03-15T03:19:32.149Z,83.60
2023-03-15T03:22:04.556Z,83.49
2023-03-15T03:24:36.319Z,83.60
2023-03-15T03:27:08.619Z,83.50
2023-03-15T03:29:40.354Z,83.22
2023-03-15T03:32:12.920Z,82.84
2023-03-15T03:34:48.605Z,82.85
2023-03-15T03:37:21.484Z,82.98
2023-03-15T03:39:53.242Z,82.89
2023-03-15T03:42:25.285Z,82.93
2023-03-15T03:44:57.028Z,82.86
2023-03-15T03:47:29.086Z,82.69
2023-03-15T03:50:00.843Z,82.64
2023-03-15T03:52:32.750Z,82.63
2023-03-15T03:55:06.026Z,82.76
2023-03-15T03:57:38.063Z,82.60
2023-03-15T04:00:14.308Z,82.61
2023-03-15T04:02:46.341Z,82.51
2023-03-15T04:05:18.276Z,82.56
2023-03-15T04:07:50.339Z,82.40
2023-03-15T04:10:27.139Z,82.37
2023-03-15T04:12:59.825Z,82.37
2023-03-15T04:15:31.658Z,82.10
2023-03-15T04:18:05.993Z,82.02
2023-03-15T04:20:36.224Z,82.05
2023-03-15T04:23:08.467Z,82.12
2023-03-15T04:25:40.227Z,81.91
2023-03-15T04:28:12.070Z,81.75
2023-03-15T04:30:46.633Z,81.89
2023-03-15T04:33:18.948Z,81.82
2023-03-15T04:35:52.765Z,81.80
2023-03-15T04:38:28.230Z,81.26
2023-03-15T04:41:00.015Z,81.14
2023-03-15T04:43:32.227Z,80.85
2023-03-15T04:46:04.040Z,80.33
2023-03-15T04:48:36.058Z,80.21
2023-03-15T04:51:08.259Z,80.04
2023-03-15T04:53:40.289Z,79.60
2023-03-15T04:56:12.159Z,79.08
2023-03-15T04:58:44.270Z,78.72
2023-03-15T05:01:16.418Z,78.68
2023-03-15T05:03:48.918Z,78.38
2023-03-15T05:06:20.675Z,78.48
2023-03-15T05:08:52.943Z,78.73
2023-03-15T05:11:24.782Z,78.87
2023-03-15T05:13:57.061Z,78.76
2023-03-15T05:16:28.888Z,78.18
2023-03-15T05:19:00.928Z,77.36
2023-03-15T05:21:33.442Z,76.00
2023-03-15T05:24:05.490Z,75.95
2023-03-15T05:26:37.281Z,76.32
2023-03-15T05:29:09.342Z,76.29
2023-03-15T05:31:41.177Z,75.85
2023-03-15T05:34:13.382Z,75.86
2023-03-15T05:36:45.196Z,75.61
2023-03-15T05:39:17.633Z,75.60
2023-03-15T05:41:49.421Z,75.32
2023-03-15T05:44:21.312Z,75.46
2023-03-15T05:46:53.172Z,75.53
2023-03-15T05:49:25.498Z,75.66
2023-03-15T05:51:57.286Z,75.77
2023-03-15T05:54:29.178Z,76.30
2023-03-15T05:57:01.004Z,76.51
2023-03-15T05:59:33.102Z,76.23
2023-03-15T06:02:05.156Z,75.44
2023-03-15T06:04:38.308Z,75.07
2023-03-15T06:07:10.221Z,74.81
2023-03-15T06:09:42.442Z,74.10
2023-03-15T06:12:14.878Z,73.80
2023-03-15T06:14:46.959Z,74.34
2023-03-15T06:17:18.712Z,73.95
2023-03-15T06:19:50.674Z,72.95
2023-03-15T06:22:24.628Z,72.78
2023-03-15T06:24:56.983Z,73.03
2023-03-15T06:27:28.743Z,72.97
2023-03-15T06:30:00.893Z,73.20
2023-03-15T06:32:32.865Z,73.38
2023-03-15T06:35:05.591Z,73.97
2023-03-15T06:37:37.419Z,73.57
2023-03-15T06:40:11.595Z,73.28
2023-03-15T06:42:43.766Z,73.38
2023-03-15T06:45:16.548Z,72.90
2023-03-15T06:47:48.272Z,72.73
2023-03-15T06:50:20.770Z,72.44
2023-03-15T06:52:52.562Z,72.76
2023-03-15T06:55:24.868Z,72.98
2023-03-15T06:57:56.617Z,72.98
2023-03-15T07:00:28.660Z,73.15
2023-03-15T07:03:00.444Z,72.88
2023-03-15T07:05:32.341Z,72.89
2023-03-15T07:08:04.196Z,72.14
2023-03-15T07:10:36.555Z,71.07
2023-03-15T07:13:09.470Z,71.23
2023-03-15T07:15:41.545Z,71.56
2023-03-15T07:18:13.352Z,71.48
2023-03-15T07:20:45.239Z,71.17
2023-03-15T07:23:17.045Z,71.38
2023-03-15T07:25:54.970Z,71.25
2023-03-15T07:28:28.028Z,70.59
2023-03-15T07:31:01.814Z,70.80
2023-03-15T07:33:35.876Z,71.35
2023-03-15T07:36:06.989Z,71.25
2023-03-15T07:38:41.318Z,70.90
2023-03-15T07:41:14.374Z,71.69
2023-03-15T07:43:46.272Z,71.93
2023-03-15T07:46:18.383Z,71.34
2023-03-15T07:48:50.297Z,71.48
2023-03-15T07:51:22.393Z,71.76
2023-03-15T07:53:54.169Z,71.68
2023-03-15T07:56:26.259Z,71.14
2023-03-15T07:58:58.035Z,71.35
2023-03-15T08:01:30.563Z,71.74
2023-03-15T08:04:02.500Z,72.08
2023-03-15T08:06:34.583Z,72.27
2023-03-15T08:09:06.856Z,72.01
2023-03-15T08:11:39.017Z,72.00
2023-03-15T08:14:10.838Z,71.73
2023-03-15T08:16:43.325Z,71.68
2023-03-15T08:19:15.196Z,71.78
2023-03-15T08:21:48.434Z,71.77
2023-03-15T08:24:20.249Z,71.31
2023-03-15T08:26:52.375Z,71.31
2023-03-15T08:29:24.153Z,71.24
2023-03-15T08:31:56.818Z,71.41
2023-03-15T08:34:28.915Z,71.74
2023-03-15T08:37:01.764Z,71.94
2023-03-15T08:39:36.429Z,71.97
2023-03-15T08:42:08.948Z,71.54
2023-03-15T08:44:40.816Z,71.19
2023-03-15T08:47:13.268Z,70.82
2023-03-15T08:49:45.123Z,69.43
2023-03-15T08:52:18.242Z,69.46
2023-03-15T08:54:50.510Z,68.76
2023-03-15T08:57:26.135Z,69.21
2023-03-15T08:59:57.965Z,68.16
2023-03-15T09:02:30.225Z,66.95
2023-03-15T09:05:02.198Z,66.61
2023-03-15T09:07:34.622Z,66.03
2023-03-15T09:10:07.241Z,65.76
2023-03-15T09:12:39.391Z,65.44
2023-03-15T09:15:12.980Z,64.98
2023-03-15T09:17:46.204Z,63.87
2023-03-15T09:20:19.403Z,63.26
2023-03-15T09:22:55.201Z,62.18
2023-03-15T09:25:27.673Z,62.63
2023-03-15T09:27:59.636Z,62.67
2023-03-15T09:30:31.599Z,63.22
2023-03-15T09:33:03.794Z,61.60
2023-03-15T09:35:35.672Z,59.61
2023-03-15T09:38:08.010Z,59.69
2023-03-15T09:40:45.144Z,59.36
2023-03-15T09:43:44.199Z,60.14
2023-03-15T09:46:27.928Z,60.03
2023-03-15T09:49:04.602Z,60.04
2023-03-15T09:51:42.529Z,60.49
2023-03-15T09:54:19.175Z,59.47
2023-03-15T09:56:56.625Z,57.79
2023-03-15T09:59:33.350Z,57.78
2023-03-15T10:02:16.054Z,57.92
2023-03-15T10:04:48.989Z,58.36
2023-03-15T10:07:21.126Z,58.15
2023-03-15T10:09:53.420Z,58.18
2023-03-15T10:12:30.950Z,56.18
2023-03-15T10:15:21.888Z,56.01
2023-03-15T10:18:06.228Z,56.87
2023-03-15T10:20:42.655Z,55.47
2023-03-15T10:23:18.199Z,55.19
2023-03-15T10:25:52.251Z,55.96
2023-03-15T10:28:24.950Z,56.13
2023-03-15T10:30:57.991Z,56.40
2023-03-15T10:33:33.066Z,54.17
2023-03-15T10:36:12.312Z,56.04
2023-03-15T10:38:44.825Z,55.27
2023-03-15T10:41:30.471Z,55.14
2023-03-15T10:44:03.919Z,54.57
2023-03-15T10:46:36.197Z,54.01
2023-03-15T10:49:14.845Z,53.77
2023-03-15T10:51:48.685Z,55.66
2023-03-15T10:54:22.018Z,55.05
2023-03-15T10:56:57.308Z,53.49
2023-03-15T10:59:30.882Z,53.68
2023-03-15T11:02:16.519Z,53.73
2023-03-15T11:04:51.521Z,52.44
2023-03-15T11:07:23.405Z,51.83
2023-03-15T11:10:00.124Z,53.59
2023-03-15T11:12:33.816Z,52.68
2023-03-15T11:15:10.054Z,51.88
2023-03-15T11:17:45.757Z,51.70
2023-03-15T11:20:30.612Z,52.54
2023-03-15T11:23:03.592Z,53.04
2023-03-15T11:25:35.978Z,53.73
2023-03-15T11:28:10.252Z,53.61
2023-03-15T11:30:44.084Z,53.97
2023-03-15T11:33:27.063Z,53.83
2023-03-15T11:36:00.653Z,54.05
2023-03-15T11:38:35.258Z,54.27
2023-03-15T11:41:12.235Z,53.76
2023-03-15T11:43:51.848Z,53.24
2023-03-15T11:46:28.944Z,52.64
2023-03-15T11:49:06.411Z,53.23
2023-03-15T11:51:39.342Z,53.17
2023-03-15T11:54:17.307Z,53.37
2023-03-15T11:56:52.395Z,53.00
2023-03-15T11:59:28.789Z,53.44
2023-03-15T12:02:08.867Z,53.83
2023-03-15T12:04:47.295Z,53.36
2023-03-15T12:07:38.477Z,54.11
2023-03-15T12:10:35.243Z,54.11
2023-03-15T12:13:20.174Z,54.99
2023-03-15T12:15:53.378Z,54.58
2023-03-15T12:18:39.757Z,52.88
2023-03-15T12:21:15.224Z,52.85
2023-03-15T12:24:01.884Z,53.03
2023-03-15T12:26:45.333Z,53.51
2023-03-15T12:29:21.364Z,51.07
2023-03-15T12:31:59.400Z,52.13
2023-03-15T12:34:39.409Z,51.58
2023-03-15T12:37:16.838Z,51.22
2023-03-15T12:39:51.773Z,51.44
2023-03-15T12:43:11.632Z,51.62
2023-03-15T12:45:47.966Z,51.94
2023-03-15T12:48:30.465Z,52.75
2023-03-15T12:51:07.281Z,53.84
2023-03-15T12:53:44.010Z,54.12
2023-03-15T12:56:33.808Z,54.02
2023-03-15T12:59:13.858Z,53.17
2023-03-15T13:01:46.127Z,52.80
2023-03-15T13:04:18.118Z,53.16
2023-03-15T13:06:58.472Z,52.61
2023-03-15T13:09:45.925Z,52.53
2023-03-15T13:12:22.306Z,52.68
2023-03-15T13:14:56.755Z,51.82
2023-03-15T13:17:36.760Z,51.96
2023-03-15T13:20:23.189Z,52.01
2023-03-15T13:22:59.256Z,53.15
2023-03-15T13:25:35.612Z,53.25
2023-03-15T13:28:12.448Z,53.82
2023-03-15T13:30:48.063Z,53.34
2023-03-15T13:33:24.667Z,54.22
2023-03-15T13:36:02.098Z,54.53
2023-03-15T13:38:36.278Z,55.18
2023-03-15T13:41:16.527Z,54.92
2023-03-15T13:43:48.834Z,53.92
2023-03-15T13:46:22.911Z,53.96
2023-03-15T13:48:53.882Z,53.31
2023-03-15T13:51:28.716Z,53.42
2023-03-15T13:54:05.959Z,54.21
2023-03-15T13:56:49.259Z,53.51
2023-03-15T13:59:22.078Z,52.52
2023-03-15T14:01:55.307Z,52.04
2023-03-15T14:04:28.096Z,52.35
2023-03-15T14:07:16.729Z,52.05
2023-03-15T14:09:48.513Z,51.24
2023-03-15T14:12:23.259Z,52.16
2023-03-15T14:14:55.526Z,52.44
2023-03-15T14:17:30.596Z,50.21
2023-03-15T14:20:16.101Z,49.05
2023-03-15T14:22:47.945Z,48.75
2023-03-15T14:25:24.904Z,48.17
2023-03-15T14:27:57.205Z,49.03
2023-03-15T14:30:29.054Z,48.88
2023-03-15T14:33:04.652Z,49.45
2023-03-15T14:35:44.511Z,50.25
2023-03-15T14:38:22.686Z,51.17
2023-03-15T14:40:55.107Z,50.96
2023-03-15T14:43:27.134Z,51.10
2023-03-15T14:45:59.049Z,51.14
2023-03-15T14:48:32.814Z,51.13
2023-03-15T14:51:05.721Z,51.69
2023-03-15T14:53:38.975Z,51.29
2023-03-15T14:56:14.176Z,51.68
2023-03-15T14:58:46.307Z,52.02
2023-03-15T15:01:22.459Z,51.94
2023-03-15T15:03:58.564Z,51.61
2023-03-15T15:06:32.597Z,52.16
2023-03-15T15:09:06.223Z,52.59
2023-03-15T15:11:38.060Z,51.73
2023-03-15T15:14:13.267Z,52.15
2023-03-15T15:16:45.332Z,52.57
2023-03-15T15:19:17.722Z,52.55
2023-03-15T15:21:49.556Z,52.56
2023-03-15T15:24:22.959Z,52.12
2023-03-15T15:26:54.839Z,51.98
2023-03-15T15:29:27.247Z,51.65
2023-03-15T15:31:59.194Z,51.48
2023-03-15T15:34:34.260Z,51.10
2023-03-15T15:37:06.190Z,50.53
2023-03-15T15:39:38.224Z,50.44
2023-03-15T15:42:12.211Z,50.41
2023-03-15T15:44:46.148Z,50.76
2023-03-15T15:47:17.948Z,50.46
2023-03-15T15:49:50.565Z,50.87
2023-03-15T15:52:22.883Z,51.01
2023-03-15T15:54:55.615Z,51.06
2023-03-15T15:57:27.992Z,51.43
2023-03-15T16:00:00.291Z,52.22
2023-03-15T16:02:32.176Z,52.44
2023-03-15T16:05:04.617Z,52.27
2023-03-15T16:07:36.423Z,52.96
2023-03-15T16:10:12.343Z,52.96
2023-03-15T16:12:44.289Z,53.10
2023-03-15T16:15:18.203Z,53.63
2023-03-15T16:17:50.152Z,53.64
2023-03-15T16:20:22.400Z,53.59
2023-03-15T16:22:59.131Z,54.56
2023-03-15T16:25:33.790Z,54.62
2023-03-15T16:28:07.981Z,54.63
2023-03-15T16:30:41.472Z,54.98
2023-03-15T16:33:16.434Z,55.00
2023-03-15T16:35:50.552Z,55.60
2023-03-15T16:38:26.531Z,55.94
2023-03-15T16:40:58.568Z,56.67
2023-03-15T16:43:30.482Z,56.90
2023-03-15T16:46:03.005Z,57.20
2023-03-15T16:48:34.954Z,57.70
2023-03-15T16:51:07.470Z,58.23
2023-03-15T16:53:39.560Z,58.37
2023-03-15T16:56:15.009Z,58.56
2023-03-15T16:58:47.451Z,58.66
2023-03-15T17:01:19.999Z,58.78
2023-03-15T17:03:52.001Z,59.64
2023-03-15T17:06:25.485Z,60.13
2023-03-15T17:09:00.214Z,60.41
2023-03-15T17:11:33.032Z,60.40
2023-03-15T17:14:04.818Z,60.77
2023-03-15T17:16:37.504Z,60.69
2023-03-15T17:19:13.672Z,61.08
2023-03-15T17:21:46.410Z,60.96
2023-03-15T17:24:18.194Z,61.75
2023-03-15T17:26:50.729Z,61.83
2023-03-15T17:29:22.717Z,61.67
2023-03-15T17:31:54.671Z,61.67
2023-03-15T17:34:26.907Z,61.79
2023-03-15T17:36:58.896Z,61.90
2023-03-15T17:39:30.723Z,62.06
2023-03-15T17:42:03.009Z,62.04
2023-03-15T17:44:34.768Z,62.13
2023-03-15T17:47:09.378Z,62.12
2023-03-15T17:49:41.370Z,62.21
2023-03-15T17:52:17.441Z,62.44
2023-03-15T17:54:49.276Z,62.64
2023-03-15T17:57:21.585Z,62.44
2023-03-15T17:59:53.790Z,62.62
2023-03-15T18:02:26.125Z,62.71
2023-03-15T18:04:57.981Z,62.94
2023-03-15T18:07:31.149Z,63.06
2023-03-15T18:10:03.059Z,63.39
2023-03-15T18:12:35.651Z,63.21
2023-03-15T18:15:09.000Z,63.27
2023-03-15T18:17:41.254Z,63.46
2023-03-15T18:20:15.241Z,63.59
2023-03-15T18:22:46.148Z,63.76
2023-03-15T18:25:21.753Z,63.66
2023-03-15T18:27:54.473Z,63.73
2023-03-15T18:30:27.752Z,63.66
2023-03-15T18:33:00.903Z,63.54
2023-03-15T18:35:34.499Z,63.64
2023-03-15T18:38:07.053Z,63.51
2023-03-15T18:40:39.004Z,63.59
2023-03-15T18:43:15.042Z,63.68
2023-03-15T18:45:47.007Z,63.62
2023-03-15T18:48:34.132Z,63.82
2023-03-15T18:51:13.819Z,63.88
2023-03-15T18:53:47.011Z,63.84
2023-03-15T18:56:21.673Z,63.92
2023-03-15T18:58:55.263Z,63.98
2023-03-15T19:01:27.215Z,64.10
2023-03-15T19:03:59.740Z,64.24
2023-03-15T19:06:32.363Z,64.61
2023-03-15T19:09:05.832Z,64.84
2023-03-15T19:11:41.842Z,64.85
2023-03-15T19:14:14.569Z,65.09
2023-03-15T19:16:46.439Z,64.72
2023-03-15T19:19:18.787Z,64.85
2023-03-15T19:21:51.079Z,64.82
2023-03-15T19:24:23.626Z,65.02
2023-03-15T19:26:55.570Z,65.10
2023-03-15T19:29:27.782Z,65.23
2023-03-15T19:32:00.279Z,65.38
2023-03-15T19:34:33.005Z,65.34
2023-03-15T19:37:04.834Z,65.41
2023-03-15T19:39:37.324Z,65.49
2023-03-15T19:42:09.267Z,65.72
2023-03-15T19:44:43.594Z,65.81
2023-03-15T19:47:15.498Z,65.76
2023-03-15T19:49:47.620Z,65.84
2023-03-15T19:52:19.466Z,65.83
2023-03-15T19:54:52.121Z,65.81
2023-03-15T19:57:23.967Z,66.09
2023-03-15T19:59:56.483Z,66.15
2023-03-15T20:02:28.299Z,65.99
2023-03-15T20:05:01.784Z,65.94
2023-03-15T20:07:33.588Z,65.91
2023-03-15T20:10:08.534Z,66.04
2023-03-15T20:12:42.479Z,65.98
2023-03-15T20:15:17.280Z,65.93
2023-03-15T20:17:49.098Z,65.95
2023-03-15T20:20:21.769Z,66.09
2023-03-15T20:22:53.858Z,66.08
2023-03-15T20:25:26.150Z,66.05
2023-03-15T20:27:57.962Z,66.05
2023-03-15T20:30:30.234Z,66.21
2023-03-15T20:33:02.049Z,66.04
2023-03-15T20:35:34.130Z,65.98
2023-03-15T20:38:08.262Z,65.92
2023-03-15T20:40:42.054Z,66.03
2023-03-15T20:43:13.922Z,65.99
2023-03-15T20:45:46.138Z,66.18
2023-03-15T20:48:18.238Z,66.01
2023-03-15T20:50:52.272Z,65.76
2023-03-15T20:53:23.285Z,65.77
2023-03-15T20:55:55.268Z,65.65
2023-03-15T20:58:27.416Z,65.68
2023-03-15T21:01:06.018Z,65.49
2023-03-15T21:03:38.291Z,65.48
2023-03-15T21:06:11.170Z,65.47
2023-03-15T21:08:45.156Z,65.51
2023-03-15T21:11:17.082Z,65.45
2023-03-15T21:13:49.151Z,65.53
2023-03-15T21:16:21.174Z,65.42
2023-03-15T21:18:54.798Z,65.51
2023-03-15T21:21:26.678Z,65.32
2023-03-15T21:23:58.634Z,65.41
2023-03-15T21:26:30.674Z,65.62
2023-03-15T21:29:02.587Z,65.47
2023-03-15T21:31:36.702Z,65.49
2023-03-15T21:34:08.656Z,65.50
2023-03-15T21:36:40.760Z,65.66
2023-03-15T21:39:12.712Z,65.69
2023-03-15T21:41:44.504Z,65.85
2023-03-15T21:44:16.369Z,65.80
2023-03-15T21:46:48.507Z,65.81
2023-03-15T21:49:20.491Z,65.98
2023-03-15T21:51:52.915Z,66.31
2023-03-15T21:54:24.898Z,66.28
2023-03-15T21:56:56.782Z,66.37
2023-03-15T21:59:28.777Z,66.60
2023-03-15T22:02:01.735Z,66.32
2023-03-15T22:04:34.293Z,66.43
2023-03-15T22:07:06.370Z,66.72
2023-03-15T22:09:38.315Z,66.86
2023-03-15T22:12:12.158Z,66.67
2023-03-15T22:14:47.352Z,66.87
2023-03-15T22:17:21.423Z,67.04
2023-03-15T22:19:54.036Z,67.11
2023-03-15T22:22:25.862Z,66.92
2023-03-15T22:24:57.919Z,67.05
2023-03-15T22:27:29.881Z,67.17
2023-03-15T22:30:01.723Z,67.11
2023-03-15T22:32:33.891Z,66.98
2023-03-15T22:35:06.471Z,67.00
2023-03-15T22:37:38.442Z,67.24
2023-03-15T22:40:14.211Z,67.36
2023-03-15T22:42:47.002Z,67.47
2023-03-15T22:45:19.117Z,67.38
2023-03-15T22:47:51.649Z,67.38
2023-03-15T22:50:24.072Z,67.55
2023-03-15T22:52:57.089Z,67.50
2023-03-15T22:55:28.862Z,67.50
2023-03-15T22:58:00.758Z,67.56
2023-03-15T23:00:32.575Z,67.73
2023-03-15T23:03:05.018Z,67.61
2023-03-15T23:05:38.035Z,67.87
2023-03-15T23:08:10.524Z,67.69
2023-03-15T23:10:43.352Z,67.84
2023-03-15T23:13:15.692Z,68.17
2023-03-15T23:15:47.495Z,68.03
2023-03-15T23:18:20.044Z,68.22
2023-03-15T23:20:51.861Z,68.33
2023-03-15T23:23:25.417Z,68.25
2023-03-15T23:25:57.719Z,68.40
2023-03-15T23:28:29.607Z,68.48
2023-03-15T23:31:04.303Z,68.69
2023-03-15T23:33:36.796Z,68.99
2023-03-15T23:36:09.888Z,68.77
2023-03-15T23:38:41.910Z,69.11
2023-03-15T23:41:14.289Z,69.24
2023-03-15T23:43:46.280Z,69.08
2023-03-15T23:46:18.409Z,69.42
2023-03-15T23:48:50.460Z,69.31
2023-03-15T23:51:22.467Z,69.47
2023-03-15T23:53:54.355Z,69.27
2023-03-15T23:56:26.442Z,69.44
2023-03-15T23:58:58.944Z,69.90
